Time;durP1;ratioP1;P1;durP2;ratioP2;P2;SDS_P1;SDS_P2;PMS_P1;PMS_P2;Temp;Humidity;BMP_temperature;BMP_pressure;BME280_temperature;BME280_humidity;BME280_pressure;Samples;Min_cycle;Max_cycle;Signal;HPM_P1;HPM_P2
2022/03/17 00:02:03;;;;;;;27.38;16.60;;;11.00;58.90;;;;;;5117383;28;20034;-20
2022/03/17 00:04:30;;;;;;;30.75;17.27;;;10.90;59.20;;;;;;5115813;28;20378;-19
2022/03/17 00:06:56;;;;;;;27.85;16.75;;;10.90;59.30;;;;;;5117487;28;20102;-20
2022/03/17 00:09:22;;;;;;;38.50;22.13;;;10.90;59.40;;;;;;5115970;28;20030;-20
2022/03/17 00:11:48;;;;;;;31.63;18.80;;;10.90;60.20;;;;;;5117452;27;20066;-20
2022/03/17 00:14:14;;;;;;;29.38;17.38;;;10.80;59.80;;;;;;5117201;28;20031;-20
2022/03/17 00:16:40;;;;;;;35.28;21.13;;;10.70;59.90;;;;;;5116777;28;20460;-19
2022/03/17 00:19:08;;;;;;;49.03;27.65;;;10.70;59.80;;;;;;5117044;28;20081;-20
2022/03/17 00:21:36;;;;;;;47.65;27.83;;;10.60;60.70;;;;;;5117181;28;20104;-20
2022/03/17 00:24:03;;;;;;;57.45;33.65;;;10.60;61.40;;;;;;5117248;28;20031;-20
2022/03/17 00:26:30;;;;;;;51.55;30.02;;;10.50;62.70;;;;;;5117039;28;20058;-20
2022/03/17 00:28:56;;;;;;;39.50;23.13;;;10.40;62.70;;;;;;5117134;28;20027;-20
2022/03/17 00:31:22;;;;;;;44.78;24.88;;;10.40;62.10;;;;;;5116831;28;20391;-20
2022/03/17 00:33:47;;;;;;;42.47;25.38;;;10.40;62.20;;;;;;5116743;28;20104;-20
2022/03/17 00:36:13;;;;;;;53.45;30.83;;;10.40;62.10;;;;;;5116314;28;20069;-22
2022/03/17 00:38:39;;;;;;;53.45;29.98;;;10.30;62.90;;;;;;5116566;27;20028;-20
2022/03/17 00:41:05;;;;;;;48.80;28.13;;;10.30;62.40;;;;;;5116932;28;20038;-19
2022/03/17 00:43:31;;;;;;;44.65;24.67;;;10.40;63.60;;;;;;5116589;28;20496;-20
2022/03/17 00:45:56;;;;;;;49.70;28.83;;;10.30;63.00;;;;;;5115292;28;20024;-20
2022/03/17 00:48:22;;;;;;;73.22;43.60;;;10.30;62.50;;;;;;5116190;28;20467;-19
2022/03/17 00:50:48;;;;;;;50.17;28.70;;;10.30;64.90;;;;;;5116329;28;20110;-20
2022/03/17 00:53:14;;;;;;;53.25;30.83;;;10.30;64.20;;;;;;5116456;27;20054;-19
2022/03/17 00:55:40;;;;;;;67.07;36.25;;;10.20;64.80;;;;;;5116646;28;20147;-20
2022/03/17 00:58:05;;;;;;;53.42;32.05;;;10.20;65.10;;;;;;5116191;28;20087;-20
2022/03/17 01:00:31;;;;;;;60.85;35.92;;;10.10;65.10;;;;;;5115634;28;20062;-19
2022/03/17 01:02:57;;;;;;;50.70;29.15;;;10.10;64.80;;;;;;5115660;28;20118;-19
2022/03/17 01:05:24;;;;;;;57.00;33.05;;;10.10;64.90;;;;;;5116372;27;20035;-20
2022/03/17 01:07:53;;;;;;;53.97;31.23;;;10.00;64.80;;;;;;5114873;28;20106;-20
2022/03/17 01:10:19;;;;;;;51.40;27.65;;;10.00;64.40;;;;;;5115904;28;20081;-20
2022/03/17 01:12:47;;;;;;;52.92;29.92;;;10.00;63.70;;;;;;5116032;28;20059;-20
2022/03/17 01:15:15;;;;;;;45.22;26.58;;;9.90;64.10;;;;;;5115904;28;20057;-21
2022/03/17 01:17:41;;;;;;;56.72;30.67;;;9.90;63.70;;;;;;5116164;28;20039;-20
2022/03/17 01:20:08;;;;;;;47.47;28.05;;;9.90;64.60;;;;;;5115769;28;20088;-20
2022/03/17 01:22:34;;;;;;;45.53;27.90;;;9.90;63.90;;;;;;5115638;28;20479;-19
2022/03/17 01:25:00;;;;;;;43.58;25.08;;;9.90;64.00;;;;;;5114618;28;20149;-19
2022/03/17 01:27:26;;;;;;;48.95;28.35;;;9.80;64.00;;;;;;5116339;28;20057;-20
2022/03/17 01:29:53;;;;;;;55.03;30.80;;;9.80;63.90;;;;;;5115635;28;20120;-19
2022/03/17 01:32:21;;;;;;;68.82;39.10;;;9.70;64.40;;;;;;5115744;28;20053;-20
2022/03/17 01:34:48;;;;;;;50.90;28.27;;;9.70;64.70;;;;;;5115806;28;20057;-20
2022/03/17 01:37:14;;;;;;;43.92;24.10;;;9.60;65.30;;;;;;5115892;27;20031;-20
2022/03/17 01:39:41;;;;;;;46.63;27.67;;;9.60;64.70;;;;;;5115514;28;20032;-19
2022/03/17 01:42:09;;;;;;;43.28;24.38;;;9.60;64.50;;;;;;5115583;28;20024;-19
2022/03/17 01:44:36;;;;;;;48.80;27.58;;;9.60;64.20;;;;;;5115291;28;20474;-20
2022/03/17 01:49:48;;;;;;;46.55;26.45;;;9.60;64.40;;;;;;5115648;28;20038;-20
2022/03/17 01:52:14;;;;;;;44.65;25.63;;;9.60;64.50;;;;;;5115301;28;20020;-20
2022/03/17 01:54:42;;;;;;;29.48;16.27;;;9.60;65.00;;;;;;5115299;28;20099;-19
2022/03/17 01:57:09;;;;;;;26.67;15.38;;;9.60;64.10;;;;;;5115052;28;20035;-20
2022/03/17 01:59:37;;;;;;;35.58;19.35;;;9.50;63.80;;;;;;5115090;28;20076;-19
2022/03/17 02:02:07;;;;;;;23.70;13.30;;;9.50;63.60;;;;;;5115199;28;20015;-19
2022/03/17 02:04:35;;;;;;;27.77;14.90;;;9.50;63.50;;;;;;5114757;28;20473;-19
2022/03/17 02:07:04;;;;;;;27.48;15.00;;;9.50;63.40;;;;;;5114816;28;20068;-20
2022/03/17 02:09:30;;;;;;;36.97;20.33;;;9.50;63.60;;;;;;5115556;28;20040;-19
2022/03/17 02:14:50;;;;;;;36.47;20.85;;;9.40;64.30;;;;;;5115418;28;20111;-19
2022/03/17 02:17:18;;;;;;;35.28;18.98;;;9.40;64.10;;;;;;5114548;28;20043;-19
2022/03/17 02:19:45;;;;;;;30.75;17.48;;;9.30;64.60;;;;;;5114984;28;20054;-20
2022/03/17 02:22:13;;;;;;;32.55;18.42;;;9.30;64.30;;;;;;5114945;28;20062;-19
2022/03/17 02:27:35;;;;;;;27.88;16.08;;;9.30;63.90;;;;;;5115199;28;20130;-20
2022/03/17 02:30:03;;;;;;;36.33;20.75;;;9.20;63.90;;;;;;5114495;28;20395;-20
2022/03/17 02:32:29;;;;;;;35.55;19.48;;;9.20;64.30;;;;;;5114276;28;20028;-19
2022/03/17 02:34:56;;;;;;;33.63;18.77;;;9.20;63.90;;;;;;5114289;28;20023;-20
2022/03/17 02:37:24;;;;;;;40.28;21.65;;;9.30;64.20;;;;;;5113061;28;20073;-20
2022/03/17 02:39:50;;;;;;;42.25;22.83;;;9.30;64.40;;;;;;5114319;28;20060;-20
2022/03/17 02:42:18;;;;;;;55.58;32.78;;;9.30;64.40;;;;;;5114179;27;20106;-19
2022/03/17 02:44:45;;;;;;;58.72;32.92;;;9.40;64.50;;;;;;5114239;28;20483;-20
2022/03/17 02:47:11;;;;;;;49.45;28.77;;;9.40;64.80;;;;;;5114510;28;20126;-20
2022/03/17 02:49:37;;;;;;;37.10;21.27;;;9.40;65.00;;;;;;5114784;28;20438;-19
2022/03/17 02:52:05;;;;;;;47.63;27.42;;;9.50;64.80;;;;;;5114023;28;20047;-19
2022/03/17 02:54:32;;;;;;;31.67;17.60;;;9.50;64.30;;;;;;5114126;28;20032;-19
2022/03/17 02:56:58;;;;;;;47.38;25.63;;;9.50;64.00;;;;;;5113870;28;20518;-20
2022/03/17 02:59:24;;;;;;;27.73;14.73;;;9.60;64.30;;;;;;5113948;28;20032;-20
2022/03/17 03:01:50;;;;;;;33.47;20.02;;;9.60;64.10;;;;;;5114485;28;20081;-19
2022/03/17 03:04:16;;;;;;;35.95;20.73;;;9.70;63.70;;;;;;5114047;28;20031;-19
2022/03/17 03:06:48;;;;;;;37.78;20.38;;;9.70;63.80;;;;;;5113904;28;20092;-20
2022/03/17 03:09:14;;;;;;;32.72;18.50;;;9.70;63.40;;;;;;5114275;28;20099;-19
2022/03/17 03:11:40;;;;;;;27.27;16.00;;;9.70;63.60;;;;;;5114117;28;20114;-20
2022/03/17 03:14:07;;;;;;;31.27;17.98;;;9.70;63.60;;;;;;5113812;28;20106;-19
2022/03/17 03:16:35;;;;;;;35.15;18.48;;;9.70;63.20;;;;;;5113351;28;20058;-19
2022/03/17 03:19:01;;;;;;;37.08;20.98;;;9.80;63.70;;;;;;5113861;28;20364;-19
2022/03/17 03:21:27;;;;;;;41.38;22.75;;;9.80;63.10;;;;;;5113668;28;20107;-19
2022/03/17 03:23:53;;;;;;;39.33;21.33;;;9.80;63.00;;;;;;5113381;28;20095;-19
2022/03/17 03:26:19;;;;;;;57.63;32.05;;;9.80;63.10;;;;;;5113726;28;20055;-20
2022/03/17 03:28:45;;;;;;;44.40;25.17;;;9.80;63.50;;;;;;5113601;28;20107;-20
2022/03/17 03:31:11;;;;;;;47.05;26.50;;;9.80;63.70;;;;;;5114355;28;20115;-19
2022/03/17 03:33:37;;;;;;;54.45;31.25;;;9.80;63.60;;;;;;5113740;28;20089;-19
2022/03/17 03:38:48;;;;;;;44.78;24.02;;;9.90;63.30;;;;;;5113524;28;20040;-20
2022/03/17 03:41:14;;;;;;;29.95;16.90;;;9.90;63.70;;;;;;5114021;28;20032;-19
2022/03/17 03:43:40;;;;;;;46.90;24.88;;;9.90;63.40;;;;;;5113725;28;20406;-20
2022/03/17 03:46:06;;;;;;;44.38;25.30;;;10.00;63.20;;;;;;5113788;28;20382;-19
2022/03/17 03:48:32;;;;;;;41.25;21.60;;;10.00;63.10;;;;;;5113259;28;20023;-20
2022/03/17 03:50:58;;;;;;;49.83;27.55;;;10.00;63.10;;;;;;5113267;28;20080;-19
2022/03/17 03:54:12;;;;;;;37.95;21.52;;;10.00;63.00;;;;;;5113707;28;20114;-19
2022/03/17 03:56:09;;;;;;;53.08;27.65;;;10.10;62.90;;;;;;5113175;28;20039;-20
2022/03/17 03:58:36;;;;;;;39.97;22.73;;;10.10;63.00;;;;;;5113372;28;20081;-20
2022/03/17 04:01:02;;;;;;;41.85;22.50;;;10.10;63.00;;;;;;5113286;28;20112;-20
2022/03/17 04:03:28;;;;;;;44.75;25.67;;;10.10;63.10;;;;;;5113267;28;20055;-20
2022/03/17 04:05:54;;;;;;;41.97;23.77;;;10.10;63.20;;;;;;5113419;28;20028;-20
2022/03/17 04:08:20;;;;;;;37.10;21.70;;;10.20;63.10;;;;;;5114235;28;20022;-20
2022/03/17 04:10:46;;;;;;;37.97;20.20;;;10.20;63.20;;;;;;5111907;28;20379;-19
2022/03/17 04:13:12;;;;;;;48.33;25.98;;;10.20;63.10;;;;;;5113412;28;20062;-20
2022/03/17 04:15:38;;;;;;;40.45;22.30;;;10.20;63.10;;;;;;5113097;28;20080;-20
2022/03/17 04:18:04;;;;;;;43.97;24.52;;;10.20;63.30;;;;;;5113306;28;20543;-20
2022/03/17 04:20:30;;;;;;;30.83;17.00;;;10.20;63.40;;;;;;5113149;28;20036;-20
2022/03/17 04:22:57;;;;;;;44.38;24.65;;;10.20;63.00;;;;;;5113098;28;20118;-19
2022/03/17 04:25:23;;;;;;;41.95;22.50;;;10.20;63.00;;;;;;5113053;28;20098;-20
2022/03/17 04:27:49;;;;;;;32.55;18.40;;;10.20;63.30;;;;;;5113001;28;20015;-19
2022/03/17 04:30:14;;;;;;;28.55;15.38;;;10.20;63.20;;;;;;5112822;28;20031;-21
2022/03/17 04:32:40;;;;;;;31.65;17.42;;;10.30;63.00;;;;;;5113008;28;20024;-20
2022/03/17 04:35:07;;;;;;;38.65;20.90;;;10.30;63.20;;;;;;5112893;28;20067;-19
2022/03/17 04:37:34;;;;;;;53.22;29.92;;;10.30;63.10;;;;;;5115466;28;20517;-20
2022/03/17 04:40:00;;;;;;;34.53;19.23;;;10.30;63.10;;;;;;5116575;28;20399;-20
2022/03/17 04:42:26;;;;;;;37.90;20.52;;;10.30;63.00;;;;;;5116487;28;20031;-20
2022/03/17 04:44:51;;;;;;;29.50;16.33;;;10.40;63.20;;;;;;5116835;28;20032;-20
2022/03/17 04:47:18;;;;;;;30.73;16.83;;;10.40;62.80;;;;;;5116854;28;20069;-20
2022/03/17 04:49:44;;;;;;;42.35;22.92;;;10.50;62.80;;;;;;5116550;28;20050;-20
2022/03/17 04:53:27;;;;;;;23.40;12.73;;;10.50;63.00;;;;;;5116529;28;20403;-19
2022/03/17 04:54:55;;;;;;;21.63;11.38;;;10.60;62.70;;;;;;5116309;28;20394;-20
2022/03/17 04:57:24;;;;;;;28.85;16.13;;;10.60;62.60;;;;;;5116288;28;20467;-20
2022/03/17 04:59:51;;;;;;;31.55;16.85;;;10.60;62.40;;;;;;5116540;28;20148;-20
2022/03/17 05:02:17;;;;;;;38.85;21.83;;;10.60;62.40;;;;;;5116326;28;20035;-20
2022/03/17 05:04:43;;;;;;;30.60;17.52;;;10.70;62.50;;;;;;5116226;28;20042;-20
2022/03/17 05:07:09;;;;;;;49.20;26.77;;;10.70;62.30;;;;;;5116736;27;20034;-20
2022/03/17 05:09:34;;;;;;;22.23;11.85;;;10.70;62.40;;;;;;5116444;28;20024;-20
2022/03/17 05:12:00;;;;;;;25.60;13.88;;;10.70;62.30;;;;;;5116082;28;20095;-20
2022/03/17 05:14:26;;;;;;;22.25;11.93;;;10.70;62.30;;;;;;5116544;28;20066;-20
2022/03/17 05:16:52;;;;;;;25.67;14.80;;;10.70;62.30;;;;;;5115571;28;20089;-20
2022/03/17 05:19:18;;;;;;;21.75;11.30;;;10.70;62.30;;;;;;5116223;28;20031;-19
2022/03/17 05:21:44;;;;;;;20.70;10.65;;;10.70;62.20;;;;;;5116043;28;20475;-20
2022/03/17 05:24:10;;;;;;;31.10;17.17;;;10.70;62.20;;;;;;5116141;28;20034;-19
2022/03/17 05:26:37;;;;;;;49.38;26.50;;;10.70;62.20;;;;;;5115589;28;20122;-19
2022/03/17 05:29:06;;;;;;;55.58;30.20;;;10.80;62.20;;;;;;5115692;28;20491;-20
2022/03/17 05:31:32;;;;;;;22.77;12.27;;;10.80;62.20;;;;;;5115925;28;20016;-20
2022/03/17 05:33:58;;;;;;;19.88;10.35;;;10.70;62.20;;;;;;5115808;28;20431;-19
2022/03/17 05:36:25;;;;;;;19.85;10.98;;;10.70;62.20;;;;;;5115607;28;20028;-19
2022/03/17 05:38:52;;;;;;;35.92;20.20;;;10.80;62.20;;;;;;5115427;28;20032;-20
2022/03/17 05:41:17;;;;;;;19.23;10.38;;;10.80;62.30;;;;;;5115487;28;20184;-20
2022/03/17 05:43:43;;;;;;;24.48;11.90;;;10.80;62.20;;;;;;5115466;28;20053;-20
2022/03/17 05:46:09;;;;;;;19.73;10.23;;;10.80;62.20;;;;;;5115572;28;20030;-19
2022/03/17 05:48:35;;;;;;;20.63;10.85;;;10.80;62.10;;;;;;5115091;28;20024;-20
2022/03/17 05:51:01;;;;;;;16.65;8.82;;;10.80;62.20;;;;;;5115523;28;20360;-20
2022/03/17 05:53:27;;;;;;;16.17;8.77;;;10.80;62.10;;;;;;5115247;28;20024;-19
2022/03/17 05:55:53;;;;;;;16.42;8.02;;;10.80;62.10;;;;;;5115388;28;20028;-20
2022/03/17 05:58:19;;;;;;;33.72;18.98;;;10.80;62.10;;;;;;5114976;27;20065;-20
2022/03/17 06:00:45;;;;;;;27.63;15.50;;;10.80;62.20;;;;;;5115073;28;20032;-20
2022/03/17 06:03:11;;;;;;;18.88;10.45;;;10.80;62.20;;;;;;5115427;28;20023;-20
2022/03/17 06:05:37;;;;;;;17.98;9.02;;;10.80;62.10;;;;;;5113689;28;20024;-20
2022/03/17 06:08:04;;;;;;;17.10;9.00;;;10.80;62.10;;;;;;5115207;27;20412;-20
2022/03/17 06:10:33;;;;;;;27.27;14.77;;;10.90;62.10;;;;;;5114697;28;20044;-20
2022/03/17 06:13:03;;;;;;;17.63;9.27;;;10.90;61.90;;;;;;5114869;28;20065;-20
2022/03/17 06:15:30;;;;;;;17.45;9.18;;;10.90;62.00;;;;;;5114847;28;20074;-19
2022/03/17 06:17:59;;;;;;;21.90;12.88;;;10.90;61.90;;;;;;5114731;28;20039;-20
2022/03/17 06:20:29;;;;;;;25.10;13.55;;;10.90;61.80;;;;;;5115096;27;20027;-20
2022/03/17 06:22:57;;;;;;;17.70;10.10;;;10.90;61.90;;;;;;5114617;28;20023;-20
2022/03/17 06:25:24;;;;;;;26.33;13.90;;;11.00;61.80;;;;;;5114570;28;20373;-20
2022/03/17 06:27:51;;;;;;;34.08;17.77;;;11.00;61.80;;;;;;5114559;28;20471;-20
2022/03/17 06:30:19;;;;;;;24.83;13.43;;;11.20;61.80;;;;;;5114285;28;20016;-20
2022/03/17 06:32:46;;;;;;;29.13;15.82;;;11.20;61.70;;;;;;5114927;28;20028;-20
2022/03/17 06:35:17;;;;;;;28.65;16.92;;;11.20;61.70;;;;;;5114572;28;20039;-19
2022/03/17 06:37:45;;;;;;;32.35;18.83;;;11.30;61.60;;;;;;5114663;28;20031;-20
2022/03/17 06:40:12;;;;;;;28.98;15.63;;;11.40;61.50;;;;;;5114739;28;20019;-20
2022/03/17 06:42:39;;;;;;;31.83;17.02;;;11.40;61.40;;;;;;5114398;28;20111;-19
2022/03/17 06:45:06;;;;;;;26.60;14.32;;;11.40;61.40;;;;;;5114896;28;20031;-20
2022/03/17 06:47:31;;;;;;;32.92;18.73;;;11.40;61.30;;;;;;5114545;28;20107;-20
2022/03/17 06:49:57;;;;;;;32.35;19.33;;;11.50;61.30;;;;;;5114179;28;20115;-20
2022/03/17 06:52:23;;;;;;;34.20;19.15;;;11.50;61.40;;;;;;5112644;28;20023;-20
2022/03/17 06:54:51;;;;;;;29.30;15.80;;;11.50;61.30;;;;;;5114390;28;20019;-20
2022/03/17 06:57:21;;;;;;;25.77;14.20;;;11.60;61.20;;;;;;5112844;28;20111;-20
2022/03/17 06:59:49;;;;;;;24.75;13.05;;;11.60;61.10;;;;;;5113660;28;20031;-20
2022/03/17 07:02:15;;;;;;;25.23;13.35;;;11.60;61.10;;;;;;5114412;28;20023;-21
2022/03/17 07:04:42;;;;;;;21.75;13.13;;;11.70;61.10;;;;;;5114572;28;20028;-20
2022/03/17 07:07:15;;;;;;;28.33;15.88;;;11.70;61.10;;;;;;5114103;28;20028;-20
2022/03/17 07:09:41;;;;;;;33.45;18.67;;;11.70;61.10;;;;;;5113962;28;20016;-20
2022/03/17 07:12:10;;;;;;;26.10;14.07;;;11.70;61.20;;;;;;5113918;28;20019;-20
2022/03/17 07:14:36;;;;;;;22.77;12.07;;;11.80;61.10;;;;;;5113574;28;20136;-19
2022/03/17 07:17:02;;;;;;;27.27;15.70;;;11.80;61.10;;;;;;5113534;28;20058;-19
2022/03/17 07:19:29;;;;;;;21.65;11.30;;;11.80;61.10;;;;;;5113777;28;20027;-20
2022/03/17 07:21:58;;;;;;;23.10;13.40;;;11.80;61.10;;;;;;5113541;28;20407;-19
2022/03/17 07:24:24;;;;;;;22.02;12.43;;;11.90;61.00;;;;;;5113468;28;20020;-19
2022/03/17 07:26:50;;;;;;;26.35;14.73;;;11.90;61.00;;;;;;5113978;28;20019;-19
2022/03/17 07:29:16;;;;;;;25.13;13.75;;;11.90;61.00;;;;;;5113903;28;20426;-19
2022/03/17 07:31:43;;;;;;;16.25;9.05;;;11.90;61.00;;;;;;5113857;28;20024;-20
2022/03/17 07:34:09;;;;;;;32.03;17.80;;;12.00;61.00;;;;;;5113840;28;20035;-19
2022/03/17 07:36:35;;;;;;;29.35;17.02;;;12.00;60.90;;;;;;5113512;28;20475;-19
2022/03/17 07:39:03;;;;;;;26.42;15.57;;;12.10;61.00;;;;;;5113432;28;20024;-19
2022/03/17 07:41:29;;;;;;;35.20;19.88;;;12.10;61.10;;;;;;5113456;28;20031;-19
2022/03/17 07:43:56;;;;;;;29.80;15.90;;;12.20;61.30;;;;;;5113465;28;20028;-19
2022/03/17 07:46:22;;;;;;;43.28;24.42;;;12.20;61.00;;;;;;5113554;28;20047;-19
2022/03/17 07:48:48;;;;;;;53.53;30.67;;;12.20;61.70;;;;;;5113384;28;20096;-19
2022/03/17 07:51:14;;;;;;;53.03;30.17;;;12.20;61.50;;;;;;5113300;28;20065;-19
2022/03/17 07:53:40;;;;;;;28.08;15.32;;;12.30;62.00;;;;;;5113328;28;20369;-19
2022/03/17 07:56:09;;;;;;;24.63;13.90;;;12.30;61.70;;;;;;5113696;28;20026;-19
2022/03/17 07:58:35;;;;;;;40.72;22.50;;;12.30;61.50;;;;;;5113093;28;20467;-19
2022/03/17 08:01:02;;;;;;;28.02;16.15;;;12.40;61.60;;;;;;5113286;28;20039;-19
2022/03/17 08:03:29;;;;;;;40.97;22.60;;;12.40;61.60;;;;;;5113528;28;20027;-19
2022/03/17 08:05:55;;;;;;;50.33;26.35;;;12.40;61.90;;;;;;5113226;28;20384;-19
2022/03/17 08:08:22;;;;;;;31.98;18.05;;;12.50;62.00;;;;;;5111770;28;20441;-20
2022/03/17 08:10:48;;;;;;;43.72;25.23;;;12.50;61.80;;;;;;5115105;28;20027;-19
2022/03/17 08:13:14;;;;;;;28.40;16.52;;;12.60;61.90;;;;;;5117616;28;20080;-19
2022/03/17 08:15:41;;;;;;;46.72;25.88;;;12.70;61.90;;;;;;5117198;27;20047;-19
2022/03/17 08:18:08;;;;;;;41.97;24.42;;;12.80;61.80;;;;;;5117347;28;20035;-19
2022/03/17 08:20:40;;;;;;;63.75;36.38;;;12.90;61.70;;;;;;5117064;28;20031;-19
2022/03/17 08:23:09;;;;;;;54.30;32.55;;;12.90;61.70;;;;;;5117025;28;20102;-19
2022/03/17 08:25:36;;;;;;;30.98;17.13;;;13.10;61.40;;;;;;5116970;28;20043;-19
2022/03/17 08:28:03;;;;;;;28.15;16.48;;;13.10;61.20;;;;;;5117258;28;20046;-19
2022/03/17 08:30:32;;;;;;;32.35;18.23;;;13.20;60.90;;;;;;5116776;28;20055;-19
2022/03/17 08:32:59;;;;;;;26.00;15.60;;;13.40;60.50;;;;;;5117745;28;20027;-19
2022/03/17 08:35:27;;;;;;;29.05;17.08;;;13.40;60.10;;;;;;5116679;28;20019;-20
2022/03/17 08:37:57;;;;;;;26.33;15.02;;;13.50;59.90;;;;;;5117442;28;20027;-19
2022/03/17 08:40:23;;;;;;;26.05;15.48;;;13.60;59.60;;;;;;5116492;28;20023;-20
2022/03/17 08:42:49;;;;;;;37.08;21.65;;;13.80;59.30;;;;;;5115448;28;20030;-19
2022/03/17 08:50:47;;;;;;;31.92;18.75;;;14.00;58.80;;;;;;5116789;28;20080;-19
2022/03/17 08:53:13;;;;;;;35.60;22.33;;;14.20;58.40;;;;;;5116434;28;20025;-19
2022/03/17 08:55:39;;;;;;;35.97;22.27;;;14.30;58.00;;;;;;5116754;28;20027;-19
2022/03/17 08:58:06;;;;;;;40.38;23.40;;;14.40;57.10;;;;;;5116159;28;20031;-19
2022/03/17 09:00:34;;;;;;;30.95;19.42;;;14.40;56.50;;;;;;5116194;28;20020;-19
2022/03/17 09:03:04;;;;;;;34.90;22.35;;;14.50;56.50;;;;;;5116562;28;20036;-19
2022/03/17 09:05:33;;;;;;;31.15;19.77;;;14.50;56.10;;;;;;5116151;27;20045;-19
2022/03/17 09:08:08;;;;;;;32.30;21.58;;;14.60;55.00;;;;;;5116471;28;20031;-19
2022/03/17 09:10:36;;;;;;;34.80;22.17;;;14.70;54.10;;;;;;5116361;28;20045;-19
2022/03/17 09:13:20;;;;;;;33.40;22.08;;;14.60;52.70;;;;;;5115419;28;20031;-19
2022/03/17 09:15:47;;;;;;;29.25;19.83;;;14.60;51.80;;;;;;5115812;28;20047;-20
2022/03/17 09:18:13;;;;;;;32.00;20.52;;;14.60;51.70;;;;;;5116216;28;20036;-19
2022/03/17 09:20:39;;;;;;;28.83;19.75;;;14.60;51.90;;;;;;5116429;28;20098;-20
2022/03/17 09:23:06;;;;;;;31.88;21.40;;;14.60;52.30;;;;;;5115463;28;20472;-19
2022/03/17 09:25:34;;;;;;;28.25;17.90;;;14.70;51.30;;;;;;5116067;28;20023;-19
2022/03/17 09:28:00;;;;;;;32.45;20.63;;;14.60;51.80;;;;;;5115832;28;20039;-19
2022/03/17 09:30:26;;;;;;;27.42;17.73;;;14.70;51.70;;;;;;5115568;28;20034;-19
2022/03/17 09:32:54;;;;;;;28.20;19.02;;;14.70;50.80;;;;;;5116297;28;20028;-19
2022/03/17 09:35:21;;;;;;;26.33;17.65;;;14.80;51.40;;;;;;5115956;28;20039;-19
2022/03/17 09:37:48;;;;;;;30.58;19.98;;;14.80;51.30;;;;;;5115517;28;20023;-20
2022/03/17 09:40:15;;;;;;;27.05;18.42;;;14.80;50.50;;;;;;5115358;28;20045;-20
2022/03/17 09:42:41;;;;;;;29.77;19.25;;;14.80;51.10;;;;;;5115793;28;20024;-19
2022/03/17 09:45:09;;;;;;;26.45;18.00;;;14.90;50.50;;;;;;5115449;28;20035;-19
2022/03/17 09:47:40;;;;;;;24.48;16.85;;;14.90;50.60;;;;;;5115602;28;20024;-19
2022/03/17 09:50:10;;;;;;;27.42;17.38;;;14.90;50.30;;;;;;5114205;28;20027;-19
2022/03/17 09:52:39;;;;;;;26.95;19.02;;;14.90;50.30;;;;;;5115370;28;20027;-19
2022/03/17 09:55:10;;;;;;;29.58;18.92;;;15.00;49.40;;;;;;5115501;28;20084;-19
2022/03/17 09:57:38;;;;;;;29.23;18.73;;;15.00;50.10;;;;;;5115174;28;20051;-19
2022/03/17 10:00:05;;;;;;;23.02;16.30;;;15.10;49.50;;;;;;5115442;28;20122;-19
2022/03/17 10:02:32;;;;;;;27.33;15.77;;;15.10;49.80;;;;;;5114857;28;20027;-19
2022/03/17 10:05:00;;;;;;;25.42;16.52;;;15.20;49.80;;;;;;5115080;28;20027;-19
2022/03/17 10:07:27;;;;;;;23.90;16.25;;;15.30;49.30;;;;;;5115177;28;20038;-19
2022/03/17 10:09:53;;;;;;;23.98;17.38;;;15.30;48.50;;;;;;5114971;28;20072;-19
2022/03/17 10:12:20;;;;;;;24.45;17.98;;;15.40;48.40;;;;;;5114684;28;20027;-19
2022/03/17 10:14:46;;;;;;;25.38;17.55;;;15.50;48.20;;;;;;5115086;28;20356;-19
2022/03/17 10:17:33;;;;;;;26.70;17.13;;;15.60;47.90;;;;;;5113322;28;20552;-19
2022/03/17 10:20:19;;;;;;;24.10;16.85;;;15.70;46.70;;;;;;5115053;28;20036;-19
2022/03/17 10:22:48;;;;;;;25.48;17.70;;;15.70;46.30;;;;;;5114609;28;20028;-19
2022/03/17 10:25:24;;;;;;;19.20;13.05;;;15.80;47.50;;;;;;5114639;28;20074;-19
2022/03/17 10:27:55;;;;;;;19.00;13.73;;;15.90;47.50;;;;;;5114587;28;20487;-19
2022/03/17 10:30:34;;;;;;;21.58;14.90;;;15.90;48.00;;;;;;5114418;28;20432;-19
2022/03/17 10:33:06;;;;;;;21.08;13.45;;;16.00;47.70;;;;;;5114529;28;20032;-19
2022/03/17 10:35:36;;;;;;;25.00;14.98;;;16.10;47.50;;;;;;5113946;28;20072;-19
2022/03/17 10:38:14;;;;;;;21.33;15.73;;;16.20;47.20;;;;;;5114374;28;20475;-19
2022/03/17 10:40:42;;;;;;;23.45;15.30;;;16.30;47.10;;;;;;5114349;28;20497;-19
2022/03/17 10:43:18;;;;;;;22.25;14.98;;;16.30;46.60;;;;;;5114585;28;20055;-19
2022/03/17 10:45:45;;;;;;;21.48;15.15;;;16.40;46.20;;;;;;5114276;28;20019;-19
2022/03/17 10:48:12;;;;;;;23.15;14.25;;;16.40;46.20;;;;;;5114358;28;20023;-19
2022/03/17 10:50:41;;;;;;;20.33;13.52;;;16.50;46.20;;;;;;5114064;28;20031;-20
2022/03/17 10:53:07;;;;;;;22.75;14.43;;;16.60;46.60;;;;;;5113819;28;20023;-19
2022/03/17 10:55:35;;;;;;;22.40;15.75;;;16.60;46.20;;;;;;5114122;28;20039;-19
2022/03/17 10:58:14;;;;;;;21.70;14.15;;;16.70;46.10;;;;;;5114296;28;20035;-19
2022/03/17 11:00:55;;;;;;;22.00;15.18;;;16.80;44.60;;;;;;5114102;28;20110;-19
2022/03/17 11:03:22;;;;;;;21.50;14.82;;;16.90;45.00;;;;;;5113957;28;20031;-19
2022/03/17 11:05:53;;;;;;;27.00;15.32;;;16.90;45.30;;;;;;5113853;28;20024;-20
2022/03/17 11:08:21;;;;;;;22.58;16.35;;;17.00;45.60;;;;;;5114080;28;20107;-20
2022/03/17 11:10:47;;;;;;;20.60;14.25;;;17.10;45.60;;;;;;5112637;28;20037;-19
2022/03/17 11:13:14;;;;;;;20.95;14.02;;;17.20;45.70;;;;;;5114033;28;20054;-19
2022/03/17 11:15:48;;;;;;;22.00;15.75;;;17.30;45.40;;;;;;5113865;28;20058;-19
2022/03/17 11:18:20;;;;;;;28.52;16.88;;;17.40;44.90;;;;;;5113903;28;20039;-20
2022/03/17 11:20:46;;;;;;;22.52;14.43;;;17.40;44.40;;;;;;5112418;28;20024;-20
2022/03/17 11:23:22;;;;;;;21.25;14.75;;;17.50;44.70;;;;;;5114081;28;20106;-19
2022/03/17 11:25:53;;;;;;;21.90;15.25;;;17.60;44.70;;;;;;5113941;28;20483;-19
2022/03/17 11:28:40;;;;;;;20.48;14.20;;;17.70;44.60;;;;;;5113425;28;20097;-20
2022/03/17 11:31:08;;;;;;;19.27;14.82;;;17.80;44.10;;;;;;5113657;28;20023;-19
2022/03/17 11:33:39;;;;;;;21.65;14.52;;;17.90;44.10;;;;;;5113576;28;20483;-19
2022/03/17 11:36:08;;;;;;;19.42;12.80;;;18.10;43.60;;;;;;5113478;28;20485;-19
2022/03/17 11:38:37;;;;;;;20.33;14.50;;;18.20;43.80;;;;;;5113207;28;20039;-19
2022/03/17 11:41:08;;;;;;;20.15;13.70;;;18.40;43.10;;;;;;5113495;28;20024;-20
2022/03/17 11:43:46;;;;;;;18.40;13.98;;;18.50;42.60;;;;;;5113485;28;20020;-19
2022/03/17 11:46:15;;;;;;;21.27;15.18;;;18.70;41.20;;;;;;5115938;28;20020;-19
2022/03/17 11:48:43;;;;;;;21.15;15.10;;;18.80;42.40;;;;;;5117739;28;20028;-19
2022/03/17 11:51:12;;;;;;;20.88;13.98;;;18.90;42.00;;;;;;5116331;28;20024;-20
2022/03/17 11:53:51;;;;;;;21.52;13.25;;;19.00;42.20;;;;;;5117945;27;20098;-19
2022/03/17 11:56:32;;;;;;;18.10;13.32;;;19.10;41.90;;;;;;5117747;28;20042;-20
2022/03/17 11:58:58;;;;;;;19.50;12.35;;;19.30;40.50;;;;;;5117772;28;20035;-20
2022/03/17 12:01:34;;;;;;;15.43;11.32;;;19.40;41.70;;;;;;5117468;28;20027;-19
2022/03/17 12:04:05;;;;;;;20.73;12.85;;;19.60;42.20;;;;;;5117455;28;20456;-19
2022/03/17 12:06:33;;;;;;;18.83;13.25;;;19.70;42.00;;;;;;5117310;28;20380;-19
2022/03/17 12:09:01;;;;;;;20.60;12.95;;;19.90;41.50;;;;;;5117502;28;20035;-19
2022/03/17 12:11:30;;;;;;;17.48;12.40;;;20.00;41.60;;;;;;5117262;28;20043;-19
2022/03/17 12:14:17;;;;;;;20.13;12.23;;;20.30;41.30;;;;;;5117881;28;20073;-19
2022/03/17 12:17:02;;;;;;;19.45;14.13;;;20.50;40.30;;;;;;5116924;28;20403;-19
2022/03/17 12:19:39;;;;;;;18.13;12.48;;;20.70;40.70;;;;;;5117420;28;20039;-19
2022/03/17 12:22:06;;;;;;;16.80;11.70;;;20.90;39.90;;;;;;5116994;28;20027;-19
2022/03/17 12:24:50;;;;;;;18.13;12.98;;;21.00;39.80;;;;;;5116817;28;20027;-19
2022/03/17 12:27:29;;;;;;;21.90;14.52;;;21.20;39.60;;;;;;5117686;28;20464;-20
2022/03/17 12:30:11;;;;;;;17.50;12.75;;;21.40;39.20;;;;;;5117338;28;20027;-19
2022/03/17 12:32:51;;;;;;;15.55;11.15;;;21.60;39.20;;;;;;5115939;28;20023;-19
2022/03/17 12:35:21;;;;;;;18.20;12.30;;;21.90;39.00;;;;;;5116848;28;20604;-19
2022/03/17 12:37:47;;;;;;;20.88;12.98;;;22.10;39.00;;;;;;5116960;28;20027;-19
2022/03/17 12:40:16;;;;;;;15.40;11.68;;;22.40;38.70;;;;;;5116919;28;20479;-19
2022/03/17 12:42:47;;;;;;;15.77;10.95;;;22.50;38.60;;;;;;5115505;28;20092;-19
2022/03/17 12:45:18;;;;;;;13.20;9.13;;;22.80;38.50;;;;;;5117016;28;20024;-19
2022/03/17 12:47:50;;;;;;;20.75;15.07;;;23.00;38.40;;;;;;5115467;28;20020;-19
2022/03/17 12:50:21;;;;;;;15.13;11.60;;;23.30;37.60;;;;;;5116351;28;20164;-19